createdAt,value
2017-02-09T00:00:18.922Z,21.04
2017-02-09T00:01:18.756Z,20.99
2017-02-09T00:02:18.946Z,21.09
2017-02-09T00:03:19.253Z,21.09
2017-02-09T00:04:19.352Z,20.95
2017-02-09T00:05:19.435Z,20.99
2017-02-09T00:06:19.446Z,20.95
2017-02-09T00:07:18.874Z,20.95
2017-02-09T00:08:18.707Z,20.98
2017-02-09T00:09:19.633Z,20.98
2017-02-09T00:10:19.034Z,21.04
2017-02-09T00:11:19.446Z,21.01
2017-02-09T00:12:19.701Z,20.94
2017-02-09T00:13:19.641Z,20.92
2017-02-09T00:14:19.982Z,20.98
2017-02-09T00:15:19.427Z,20.95
2017-02-09T00:16:19.657Z,20.97
2017-02-09T00:17:19.369Z,20.92
2017-02-09T00:18:18.931Z,20.97
2017-02-09T00:19:19.525Z,20.89
2017-02-09T00:20:20.006Z,21.03
2017-02-09T00:21:19.059Z,20.89
2017-02-09T00:22:19.847Z,21.03
2017-02-09T00:23:19.639Z,20.98
2017-02-09T00:24:19.853Z,20.95
2017-02-09T00:25:19.620Z,20.92
2017-02-09T00:26:19.657Z,20.91
2017-02-09T00:27:19.205Z,20.84
2017-02-09T00:28:20.067Z,20.89
2017-02-09T00:29:20.115Z,20.88
2017-02-09T00:30:20.194Z,20.98
2017-02-09T00:31:19.637Z,20.87
2017-02-09T00:32:19.823Z,20.87
2017-02-09T00:33:19.867Z,20.88
2017-02-09T00:34:19.431Z,20.88
2017-02-09T00:35:20.473Z,20.89
2017-02-09T00:36:20.178Z,20.88
2017-02-09T00:37:19.515Z,20.87
2017-02-09T00:38:19.859Z,20.91
2017-02-09T00:39:20.365Z,20.87
2017-02-09T00:40:20.156Z,20.87
2017-02-09T00:41:19.882Z,20.88
2017-02-09T00:42:20.329Z,20.89
2017-02-09T00:43:20.401Z,20.88
2017-02-09T00:44:19.904Z,20.89
2017-02-09T00:45:19.832Z,20.89
2017-02-09T00:46:20.136Z,20.84
2017-02-09T00:47:20.561Z,20.87
2017-02-09T00:48:20.209Z,20.74
2017-02-09T00:49:20.681Z,20.74
2017-02-09T00:50:20.436Z,20.79
2017-02-09T00:51:20.194Z,20.82
2017-02-09T00:52:20.542Z,20.79
2017-02-09T00:53:20.616Z,20.8
2017-02-09T00:54:20.292Z,20.76
2017-02-09T00:55:20.700Z,20.67
2017-02-09T00:56:20.493Z,20.76
2017-02-09T00:57:20.672Z,20.72
2017-02-09T00:58:20.892Z,20.7
2017-02-09T00:59:20.849Z,20.79
2017-02-09T01:00:21.142Z,20.7
2017-02-09T01:01:20.707Z,20.7
2017-02-09T01:02:20.776Z,20.8
2017-02-09T01:03:20.964Z,20.73
2017-02-09T01:04:20.415Z,20.73
2017-02-09T01:05:20.895Z,20.7
2017-02-09T01:06:20.924Z,20.72
2017-02-09T01:07:20.752Z,20.73
2017-02-09T01:08:20.563Z,20.66
2017-02-09T01:09:20.856Z,20.69
2017-02-09T01:10:21.080Z,20.62
2017-02-09T01:11:21.070Z,20.62
2017-02-09T01:12:20.889Z,20.66
2017-02-09T01:13:21.295Z,20.59
2017-02-09T01:14:20.948Z,20.66
2017-02-09T01:15:21.564Z,20.54
2017-02-09T01:16:21.135Z,20.62
2017-02-09T01:17:20.799Z,20.62
2017-02-09T01:18:20.651Z,20.64
2017-02-09T01:19:20.912Z,20.59
2017-02-09T01:20:21.764Z,20.64
2017-02-09T01:21:21.376Z,20.57
2017-02-09T01:22:21.448Z,20.64
2017-02-09T01:23:21.142Z,20.62
2017-02-09T01:24:21.442Z,20.64
2017-02-09T01:25:21.807Z,20.64
2017-02-09T01:26:21.187Z,20.67
2017-02-09T01:27:21.176Z,20.67
2017-02-09T01:28:21.647Z,20.64
2017-02-09T01:29:21.626Z,20.57
2017-02-09T01:30:21.526Z,20.62
2017-02-09T01:31:21.645Z,20.58
2017-02-09T01:32:21.789Z,20.58
2017-02-09T01:33:21.816Z,20.59
2017-02-09T01:34:21.452Z,20.58
2017-02-09T01:35:21.882Z,20.55
2017-02-09T01:36:21.693Z,20.58
2017-02-09T01:37:21.567Z,20.57
2017-02-09T01:38:21.036Z,20.59
2017-02-09T01:39:21.918Z,20.57
2017-02-09T01:40:22.049Z,20.58
2017-02-09T01:41:22.291Z,20.59
2017-02-09T01:42:21.720Z,20.54
2017-02-09T01:43:21.233Z,20.59
2017-02-09T01:44:22.149Z,20.51
2017-02-09T01:45:21.701Z,20.48
2017-02-09T01:46:22.000Z,20.52
2017-02-09T01:47:21.990Z,20.52
2017-02-09T01:48:22.123Z,20.54
2017-02-09T01:49:22.053Z,20.47
2017-02-09T01:50:22.135Z,20.5
2017-02-09T01:51:22.341Z,20.54
2017-02-09T01:52:21.888Z,20.55
2017-02-09T01:53:21.947Z,20.5
2017-02-09T01:54:21.628Z,20.42
2017-02-09T01:55:22.388Z,20.41
2017-02-09T01:56:21.833Z,20.48
2017-02-09T01:57:21.972Z,20.52
2017-02-09T01:58:21.927Z,20.48
2017-02-09T01:59:22.058Z,20.5
2017-02-09T02:00:22.366Z,20.5
2017-02-09T02:01:21.800Z,20.54
2017-02-09T02:02:21.973Z,20.36
2017-02-09T02:03:22.368Z,20.52
2017-02-09T02:04:21.746Z,20.51
2017-02-09T02:05:22.458Z,20.48
2017-02-09T02:06:22.530Z,20.42
2017-02-09T02:07:22.401Z,20.47
2017-02-09T02:08:22.642Z,20.42
2017-02-09T02:09:21.749Z,20.38
2017-02-09T02:10:22.061Z,20.48
2017-02-09T02:11:22.291Z,20.39
2017-02-09T02:12:23.284Z,20.39
2017-02-09T02:13:22.466Z,20.36
2017-02-09T02:14:22.915Z,20.39
2017-02-09T02:15:22.019Z,20.39
2017-02-09T02:16:22.746Z,20.38
2017-02-09T02:17:22.415Z,20.39
2017-02-09T02:18:22.735Z,20.32
2017-02-09T02:19:22.487Z,20.36
2017-02-09T02:20:22.587Z,20.33
2017-02-09T02:21:22.661Z,20.32
2017-02-09T02:22:23.334Z,20.35
2017-02-09T02:23:22.505Z,20.35
2017-02-09T02:24:22.541Z,20.35
2017-02-09T02:25:22.670Z,20.39
2017-02-09T02:26:23.214Z,20.36
2017-02-09T02:27:23.479Z,20.29
2017-02-09T02:28:22.501Z,20.35
2017-02-09T02:29:23.215Z,20.28
2017-02-09T02:30:23.235Z,20.36
2017-02-09T02:31:23.374Z,20.28
2017-02-09T02:32:23.184Z,20.38
2017-02-09T02:33:23.469Z,20.31
2017-02-09T02:34:23.415Z,20.24
2017-02-09T02:35:22.979Z,20.28
2017-02-09T02:36:23.086Z,20.36
2017-02-09T02:37:23.351Z,20.32
2017-02-09T02:38:23.311Z,20.24
2017-02-09T02:39:23.562Z,20.29
2017-02-09T02:40:22.789Z,20.28
2017-02-09T02:41:23.283Z,20.29
2017-02-09T02:42:23.351Z,20.26
2017-02-09T02:43:23.937Z,20.28
2017-02-09T02:44:23.619Z,20.31
2017-02-09T02:45:22.872Z,20.29
2017-02-09T02:46:23.532Z,20.29
2017-02-09T02:47:23.396Z,20.29
2017-02-09T02:48:23.836Z,20.24
2017-02-09T02:49:23.894Z,20.31
2017-02-09T02:50:23.486Z,20.21
2017-02-09T02:51:23.840Z,20.28
2017-02-09T02:52:22.974Z,20.28
2017-02-09T02:53:24.182Z,20.23
2017-02-09T02:54:23.565Z,20.29
2017-02-09T02:55:23.536Z,20.23
2017-02-09T02:56:23.964Z,20.26
2017-02-09T02:57:23.921Z,20.17
2017-02-09T02:58:23.475Z,20.2
2017-02-09T02:59:24.010Z,20.2
2017-02-09T03:00:23.290Z,20.14
2017-02-09T03:01:24.025Z,20.17
2017-02-09T03:02:23.966Z,20.18
2017-02-09T03:03:24.167Z,20.18
2017-02-09T03:04:23.727Z,20.29
2017-02-09T03:05:23.782Z,20.2
2017-02-09T03:06:23.334Z,20.18
2017-02-09T03:07:23.922Z,20.13
2017-02-09T03:08:24.203Z,20.14
2017-02-09T03:09:23.755Z,20.23
2017-02-09T03:10:24.346Z,20.18
2017-02-09T03:11:23.853Z,20.2
2017-02-09T03:12:24.379Z,20.13
2017-02-09T03:13:24.250Z,20.13
2017-02-09T03:14:24.289Z,20.1
2017-02-09T03:15:24.361Z,20.21
2017-02-09T03:16:24.044Z,20.2
2017-02-09T03:17:24.513Z,20.21
2017-02-09T03:18:24.613Z,20.18
2017-02-09T03:19:23.584Z,20.2
2017-02-09T03:20:24.681Z,20.17
2017-02-09T03:21:24.718Z,20.16
2017-02-09T03:22:23.949Z,20.17
2017-02-09T03:23:24.503Z,20.16
2017-02-09T03:24:24.492Z,20.21
2017-02-09T03:25:24.762Z,20.21
2017-02-09T03:26:24.668Z,20.18
2017-02-09T03:27:23.760Z,20.16
2017-02-09T03:28:24.632Z,20.13
2017-02-09T03:29:24.116Z,20.14
2017-02-09T03:30:24.194Z,20.14
2017-02-09T03:31:24.530Z,20.1
2017-02-09T03:32:24.163Z,20.13
2017-02-09T03:33:24.854Z,20.17
2017-02-09T03:34:24.520Z,20.02
2017-02-09T03:35:24.543Z,20.11
2017-02-09T03:36:25.064Z,20.03
2017-02-09T03:37:24.674Z,20.03
2017-02-09T03:38:25.095Z,20.06
2017-02-09T03:39:24.991Z,20.03
2017-02-09T03:40:24.579Z,20.03
2017-02-09T03:41:24.985Z,20.06
2017-02-09T03:42:24.872Z,20.05
2017-02-09T03:43:24.692Z,20.1
2017-02-09T03:44:25.595Z,20.06
2017-02-09T03:45:25.051Z,20.14
2017-02-09T03:46:24.942Z,20.06
2017-02-09T03:47:25.360Z,20.06
2017-02-09T03:48:25.389Z,20.06
2017-02-09T03:49:25.485Z,20.05
2017-02-09T03:50:24.975Z,20.08
2017-02-09T03:51:25.066Z,20.13
2017-02-09T03:52:24.970Z,20.03
2017-02-09T03:53:24.602Z,20.06
2017-02-09T03:54:25.302Z,20.06
2017-02-09T03:55:25.489Z,20.06
2017-02-09T03:56:25.143Z,20.05
2017-02-09T03:57:25.506Z,20.02
2017-02-09T03:58:25.616Z,20.11
2017-02-09T03:59:25.423Z,20.05
2017-02-09T04:00:25.621Z,20.03
2017-02-09T04:01:25.765Z,20.02
2017-02-09T04:02:24.979Z,20.05
2017-02-09T04:03:25.406Z,20.03
2017-02-09T04:04:25.635Z,19.95
2017-02-09T04:05:25.905Z,19.96
2017-02-09T04:06:25.236Z,20.06
2017-02-09T04:07:25.282Z,20.06
2017-02-09T04:08:25.828Z,20.06
2017-02-09T04:09:26.093Z,20.05
2017-02-09T04:10:25.570Z,19.95
2017-02-09T04:11:26.020Z,20.03
2017-02-09T04:12:26.001Z,20.01
2017-02-09T04:13:25.641Z,19.98
2017-02-09T04:14:25.143Z,19.99
2017-02-09T04:15:26.073Z,19.98
2017-02-09T04:16:25.867Z,19.96
2017-02-09T04:17:26.102Z,19.92
2017-02-09T04:18:26.186Z,20.02
2017-02-09T04:19:25.245Z,19.98
2017-02-09T04:20:26.029Z,19.94
2017-02-09T04:21:25.612Z,19.99
2017-02-09T04:22:26.278Z,20.01
2017-02-09T04:23:26.267Z,19.92
2017-02-09T04:24:26.246Z,19.95
2017-02-09T04:25:26.445Z,19.95
2017-02-09T04:26:26.146Z,19.95
2017-02-09T04:27:25.994Z,19.95
2017-02-09T04:28:26.166Z,19.92
2017-02-09T04:29:25.979Z,19.86
2017-02-09T04:30:26.575Z,19.94
2017-02-09T04:31:25.790Z,19.94
2017-02-09T04:32:25.895Z,19.81
2017-02-09T04:33:25.934Z,19.96
2017-02-09T04:34:26.034Z,19.83
2017-02-09T04:35:26.341Z,19.96
2017-02-09T04:36:26.445Z,19.92
2017-02-09T04:37:26.502Z,19.86
2017-02-09T04:38:25.631Z,19.94
2017-02-09T04:39:26.262Z,19.88
2017-02-09T04:40:27.045Z,19.95
2017-02-09T04:41:26.317Z,19.99
2017-02-09T04:42:26.751Z,19.91
2017-02-09T04:43:26.659Z,19.96
2017-02-09T04:44:26.632Z,19.92
2017-02-09T04:45:26.584Z,19.98
2017-02-09T04:46:26.828Z,19.88
2017-02-09T04:47:26.783Z,19.94
2017-02-09T04:48:26.885Z,19.91
2017-02-09T04:49:26.641Z,19.91
2017-02-09T04:50:26.679Z,19.95
2017-02-09T04:51:26.922Z,19.87
2017-02-09T04:52:26.460Z,19.92
2017-02-09T04:53:26.934Z,19.87
2017-02-09T04:54:26.279Z,19.86
2017-02-09T04:55:26.951Z,19.88
2017-02-09T04:56:26.906Z,19.87
2017-02-09T04:57:26.581Z,19.87
2017-02-09T04:58:26.745Z,19.87
2017-02-09T04:59:26.640Z,19.95
2017-02-09T05:00:26.733Z,19.83
2017-02-09T05:01:27.382Z,19.88
2017-02-09T05:02:26.773Z,19.8
2017-02-09T05:03:27.136Z,19.81
2017-02-09T05:04:26.778Z,19.84
2017-02-09T05:05:27.252Z,19.83
2017-02-09T05:06:26.808Z,19.84
2017-02-09T05:07:27.376Z,19.84
2017-02-09T05:08:26.826Z,19.87
2017-02-09T05:09:27.049Z,19.84
2017-02-09T05:10:27.380Z,19.81
2017-02-09T05:11:27.222Z,19.88
2017-02-09T05:12:27.039Z,19.81
2017-02-09T05:13:27.039Z,19.8
2017-02-09T05:14:27.266Z,19.84
2017-02-09T05:15:27.195Z,19.78
2017-02-09T05:16:27.910Z,19.84
2017-02-09T05:17:27.681Z,19.83
2017-02-09T05:18:26.899Z,19.81
2017-02-09T05:19:27.524Z,19.8
2017-02-09T05:20:27.755Z,19.84
2017-02-09T05:21:27.560Z,19.87
2017-02-09T05:22:27.866Z,19.87
2017-02-09T05:23:27.858Z,19.86
2017-02-09T05:24:27.543Z,19.87
2017-02-09T05:25:27.280Z,19.86
2017-02-09T05:26:28.114Z,19.86
2017-02-09T05:27:27.947Z,19.94
2017-02-09T05:28:27.535Z,19.87
2017-02-09T05:29:27.390Z,19.92
2017-02-09T05:30:28.021Z,19.99
2017-02-09T05:31:28.006Z,19.98
2017-02-09T05:32:27.801Z,19.98
2017-02-09T05:33:27.764Z,19.96
2017-02-09T05:34:28.094Z,19.99
2017-02-09T05:35:27.803Z,20.03
2017-02-09T05:36:28.348Z,20.06
2017-02-09T05:37:28.233Z,20.06
2017-02-09T05:38:27.816Z,20.08
2017-02-09T05:39:27.700Z,20.1
2017-02-09T05:40:28.142Z,20.01
2017-02-09T05:41:27.486Z,20.05
2017-02-09T05:42:27.865Z,20.03
2017-02-09T05:43:27.814Z,20.2
2017-02-09T05:44:28.298Z,20.13
2017-02-09T05:45:27.574Z,20.11
2017-02-09T05:46:28.450Z,20.16
2017-02-09T05:47:28.325Z,20.21
2017-02-09T05:48:28.509Z,20.16
2017-02-09T05:49:28.510Z,20.16
2017-02-09T05:50:27.899Z,20.2
2017-02-09T05:51:28.592Z,20.2
2017-02-09T05:52:28.448Z,20.23
2017-02-09T05:53:28.574Z,20.24
2017-02-09T05:54:28.656Z,20.31
2017-02-09T05:55:27.901Z,20.31
2017-02-09T05:56:28.485Z,20.26
2017-02-09T05:57:28.355Z,20.31
2017-02-09T05:58:28.642Z,20.36
2017-02-09T05:59:28.730Z,20.38
2017-02-09T06:00:28.394Z,20.32
2017-02-09T06:01:28.315Z,20.39
2017-02-09T06:02:28.541Z,20.41
2017-02-09T06:03:29.315Z,20.5
2017-02-09T06:04:28.818Z,20.42
2017-02-09T06:05:28.490Z,20.52
2017-02-09T06:06:28.831Z,20.43
2017-02-09T06:07:28.951Z,20.42
2017-02-09T06:08:28.505Z,20.51
2017-02-09T06:09:28.386Z,20.52
2017-02-09T06:10:28.510Z,20.57
2017-02-09T06:11:29.088Z,20.61
2017-02-09T06:12:29.230Z,20.58
2017-02-09T06:13:28.812Z,20.59
2017-02-09T06:14:28.447Z,20.67
2017-02-09T06:15:28.802Z,20.59
2017-02-09T06:16:28.853Z,20.67
2017-02-09T06:17:29.357Z,20.62
2017-02-09T06:18:29.272Z,20.62
2017-02-09T06:19:29.252Z,20.62
2017-02-09T06:20:28.498Z,20.76
2017-02-09T06:21:29.324Z,20.76
2017-02-09T06:22:29.400Z,20.72
2017-02-09T06:23:28.704Z,20.7
2017-02-09T06:24:28.868Z,20.72
2017-02-09T06:25:29.454Z,20.82
2017-02-09T06:26:29.317Z,20.7
2017-02-09T06:27:29.379Z,20.8
2017-02-09T06:28:29.211Z,20.84
2017-02-09T06:29:28.933Z,20.82
2017-02-09T06:30:29.509Z,20.76
2017-02-09T06:31:29.496Z,20.79
2017-02-09T06:32:28.888Z,20.82
2017-02-09T06:33:29.340Z,20.77
2017-02-09T06:34:29.655Z,20.76
2017-02-09T06:35:29.713Z,20.85
2017-02-09T06:36:29.679Z,20.88
2017-02-09T06:37:29.906Z,20.85
2017-02-09T06:38:29.532Z,20.85
2017-02-09T06:39:29.139Z,20.88
2017-02-09T06:40:29.827Z,20.91
2017-02-09T06:41:29.740Z,20.88
2017-02-09T06:42:29.074Z,20.88
2017-02-09T06:43:29.031Z,20.85
2017-02-09T06:44:29.855Z,20.87
2017-02-09T06:45:29.900Z,20.89
2017-02-09T06:46:29.366Z,20.85
2017-02-09T06:47:29.957Z,20.91
2017-02-09T06:48:29.585Z,20.85
2017-02-09T06:49:29.647Z,20.92
2017-02-09T06:50:29.607Z,20.88
2017-02-09T06:51:29.729Z,20.85
2017-02-09T06:52:29.783Z,20.8
2017-02-09T06:53:30.085Z,20.87
2017-02-09T06:54:30.098Z,20.88
2017-02-09T06:55:29.448Z,20.89
2017-02-09T06:56:30.080Z,20.91
2017-02-09T06:57:29.874Z,20.91
2017-02-09T06:58:30.420Z,20.92
2017-02-09T06:59:29.766Z,20.88
2017-02-09T07:00:30.167Z,20.79
2017-02-09T07:01:30.023Z,20.85
2017-02-09T07:02:29.980Z,20.73
2017-02-09T07:03:30.749Z,20.79
2017-02-09T07:04:30.369Z,20.77
2017-02-09T07:05:30.094Z,20.8
2017-02-09T07:06:30.426Z,20.76
2017-02-09T07:07:29.946Z,20.8
2017-02-09T07:08:30.325Z,20.69
2017-02-09T07:09:30.102Z,20.72
2017-02-09T07:10:30.473Z,20.85
2017-02-09T07:11:30.237Z,20.76
2017-02-09T07:12:30.318Z,20.7
2017-02-09T07:13:30.636Z,20.79
2017-02-09T07:14:30.214Z,20.77
2017-02-09T07:15:30.142Z,20.74
2017-02-09T07:16:30.367Z,20.69
2017-02-09T07:17:30.825Z,20.74
2017-02-09T07:18:30.615Z,20.8
2017-02-09T07:19:30.456Z,20.82
2017-02-09T07:20:30.255Z,20.67
2017-02-09T07:21:30.415Z,20.77
2017-02-09T07:22:30.552Z,20.79
2017-02-09T07:23:30.565Z,20.72
2017-02-09T07:24:30.947Z,20.77
2017-02-09T07:25:30.469Z,20.77
2017-02-09T07:26:30.969Z,20.73
2017-02-09T07:27:31.073Z,20.84
2017-02-09T07:28:31.052Z,20.82
2017-02-09T07:29:31.039Z,20.72
2017-02-09T07:30:30.040Z,20.72
2017-02-09T07:31:31.186Z,20.76
2017-02-09T07:32:30.877Z,20.76
2017-02-09T07:33:30.698Z,20.74
2017-02-09T07:34:31.416Z,20.74
2017-02-09T07:35:30.811Z,20.76
2017-02-09T07:36:31.120Z,20.77
2017-02-09T07:37:30.950Z,20.73
2017-02-09T07:38:30.920Z,20.85
2017-02-09T07:39:31.594Z,20.85
2017-02-09T07:40:31.305Z,20.79
2017-02-09T07:41:30.381Z,20.88
2017-02-09T07:42:31.229Z,20.8
2017-02-09T07:43:31.342Z,20.82
2017-02-09T07:44:31.241Z,20.91
2017-02-09T07:45:31.181Z,20.88
2017-02-09T07:46:31.469Z,20.85
2017-02-09T07:47:31.352Z,20.85
2017-02-09T07:48:31.603Z,20.92
2017-02-09T07:49:31.202Z,20.88
2017-02-09T07:50:31.678Z,20.92
2017-02-09T07:51:31.206Z,20.89
2017-02-09T07:52:31.451Z,20.94
2017-02-09T07:53:31.709Z,20.87
2017-02-09T07:54:31.620Z,20.89
2017-02-09T07:55:31.661Z,20.77
2017-02-09T07:56:31.454Z,20.89
2017-02-09T07:57:31.468Z,20.89
2017-02-09T07:58:31.888Z,20.87
2017-02-09T07:59:31.500Z,20.82
2017-02-09T08:00:31.832Z,20.87
2017-02-09T08:01:31.736Z,20.88
2017-02-09T08:02:31.736Z,20.89
2017-02-09T08:03:31.383Z,20.87
2017-02-09T08:04:31.717Z,20.76
2017-02-09T08:05:31.465Z,20.76
2017-02-09T08:06:30.981Z,20.76
2017-02-09T08:07:32.149Z,20.76
2017-02-09T08:08:32.106Z,20.7
2017-02-09T08:09:32.306Z,20.77
2017-02-09T08:10:31.259Z,20.74
2017-02-09T08:11:31.848Z,20.77
2017-02-09T08:12:32.263Z,20.8
2017-02-09T08:13:31.891Z,20.77
2017-02-09T08:14:31.889Z,20.77
2017-02-09T08:15:31.624Z,20.82
2017-02-09T08:16:31.355Z,20.76
2017-02-09T08:17:32.406Z,20.67
2017-02-09T08:18:32.051Z,20.76
2017-02-09T08:19:31.264Z,20.79
2017-02-09T08:20:31.950Z,20.8
2017-02-09T08:21:32.062Z,20.76
2017-02-09T08:22:31.998Z,20.77
2017-02-09T08:23:32.171Z,20.8
2017-02-09T08:24:31.982Z,20.85
2017-02-09T08:25:32.335Z,20.87
2017-02-09T08:26:32.623Z,20.87
2017-02-09T08:27:32.309Z,20.8
2017-02-09T08:28:32.201Z,20.97
2017-02-09T08:29:32.406Z,20.88
2017-02-09T08:30:32.585Z,20.85
2017-02-09T08:31:32.137Z,20.92
2017-02-09T08:32:32.049Z,20.99
2017-02-09T08:33:31.896Z,20.95
2017-02-09T08:34:31.894Z,21.01
2017-02-09T08:35:32.834Z,20.92
2017-02-09T08:36:32.484Z,20.94
2017-02-09T08:37:32.502Z,21.16
2017-02-09T08:38:32.190Z,21.19
2017-02-09T08:39:32.097Z,21.21
2017-02-09T08:40:32.451Z,21.29
2017-02-09T08:41:32.911Z,21.34
2017-02-09T08:42:32.616Z,21.31
2017-02-09T08:43:32.724Z,21.35
2017-02-09T08:44:32.570Z,21.58
2017-02-09T08:45:32.755Z,21.67
2017-02-09T08:46:32.932Z,21.8
2017-02-09T08:47:33.206Z,21.83
2017-02-09T08:48:33.213Z,21.8
2017-02-09T08:49:32.451Z,21.88
2017-02-09T08:50:32.772Z,21.84
2017-02-09T08:51:32.675Z,21.75
2017-02-09T08:52:33.141Z,21.74
2017-02-09T08:53:32.897Z,21.62
2017-02-09T08:54:32.547Z,21.61
2017-02-09T08:55:33.244Z,21.56
2017-02-09T08:56:33.384Z,21.5
2017-02-09T08:57:33.483Z,21.47
2017-02-09T08:58:33.100Z,21.44
2017-02-09T08:59:32.928Z,21.47
2017-02-09T09:00:33.261Z,21.44
2017-02-09T09:01:32.724Z,21.37
2017-02-09T09:02:33.516Z,21.46
2017-02-09T09:03:32.679Z,21.4
2017-02-09T09:04:33.387Z,21.37
2017-02-09T09:05:33.523Z,21.38
2017-02-09T09:06:33.850Z,21.46
2017-02-09T09:07:33.613Z,21.46
2017-02-09T09:08:33.155Z,21.43
2017-02-09T09:09:33.562Z,21.46
2017-02-09T09:10:32.969Z,21.46
2017-02-09T09:11:34.071Z,21.49
2017-02-09T09:12:33.611Z,21.5
2017-02-09T09:13:33.788Z,21.54
2017-02-09T09:14:33.118Z,21.46
2017-02-09T09:15:33.415Z,21.44
2017-02-09T09:16:34.121Z,21.47
2017-02-09T09:17:33.904Z,21.49
2017-02-09T09:18:33.967Z,21.4
2017-02-09T09:19:33.434Z,21.46
2017-02-09T09:20:33.589Z,21.46
2017-02-09T09:21:34.101Z,21.46
2017-02-09T09:22:33.672Z,21.46
2017-02-09T09:23:33.594Z,21.43
2017-02-09T09:24:33.385Z,21.43
2017-02-09T09:25:33.591Z,21.43
2017-02-09T09:26:34.463Z,21.44
2017-02-09T09:27:33.572Z,21.43
2017-02-09T09:28:33.881Z,21.4
2017-02-09T09:29:34.242Z,21.38
2017-02-09T09:30:33.419Z,21.37
2017-02-09T09:31:34.110Z,21.4
2017-02-09T09:32:34.020Z,21.46
2017-02-09T09:33:33.894Z,21.42
2017-02-09T09:34:34.080Z,21.42
2017-02-09T09:35:34.021Z,21.37
2017-02-09T09:36:35.001Z,21.44
2017-02-09T09:37:34.579Z,21.4
2017-02-09T09:38:33.793Z,21.44
2017-02-09T09:39:34.193Z,21.46
2017-02-09T09:40:34.208Z,21.42
2017-02-09T09:41:34.648Z,21.47
2017-02-09T09:42:34.291Z,21.52
2017-02-09T09:43:34.170Z,21.54
2017-02-09T09:44:33.968Z,21.58
2017-02-09T09:45:34.290Z,21.52
2017-02-09T09:46:34.061Z,21.54
2017-02-09T09:47:34.371Z,21.56
2017-02-09T09:48:34.206Z,21.53
2017-02-09T09:49:34.380Z,21.61
2017-02-09T09:50:34.347Z,21.62
2017-02-09T09:51:34.760Z,21.58
2017-02-09T09:52:35.244Z,21.52
2017-02-09T09:53:34.395Z,21.58
2017-02-09T09:54:34.606Z,21.53
2017-02-09T09:55:34.620Z,21.52
2017-02-09T09:56:34.256Z,21.52
2017-02-09T09:57:35.316Z,21.59
2017-02-09T09:58:34.749Z,21.54
2017-02-09T09:59:35.027Z,21.56
2017-02-09T10:00:34.672Z,21.58
2017-02-09T10:01:35.212Z,21.62
2017-02-09T10:02:34.994Z,21.52
2017-02-09T10:03:34.869Z,21.62
2017-02-09T10:04:35.204Z,21.56
2017-02-09T10:05:35.281Z,21.53
2017-02-09T10:06:34.847Z,21.58
2017-02-09T10:07:35.504Z,21.65
2017-02-09T10:08:34.818Z,21.61
2017-02-09T10:09:34.395Z,21.62
2017-02-09T10:10:35.024Z,21.65
2017-02-09T10:11:35.067Z,21.72
2017-02-09T10:12:35.651Z,21.67
2017-02-09T10:13:35.051Z,21.72
2017-02-09T10:14:34.771Z,21.65
2017-02-09T10:15:35.557Z,21.72
2017-02-09T10:16:35.170Z,21.79
2017-02-09T10:17:35.548Z,21.75
2017-02-09T10:18:34.957Z,21.8
2017-02-09T10:19:35.158Z,21.83
2017-02-09T10:20:35.664Z,21.8
2017-02-09T10:21:34.718Z,21.82
2017-02-09T10:22:35.266Z,21.91
2017-02-09T10:23:35.393Z,21.77
2017-02-09T10:24:35.390Z,21.82
2017-02-09T10:25:35.337Z,21.86
2017-02-09T10:26:35.743Z,21.91
2017-02-09T10:27:35.864Z,21.88
2017-02-09T10:28:35.388Z,21.8
2017-02-09T10:29:35.004Z,21.88
2017-02-09T10:30:35.964Z,21.79
2017-02-09T10:31:35.817Z,21.94
2017-02-09T10:32:35.981Z,21.84
2017-02-09T10:33:35.928Z,21.9
2017-02-09T10:34:35.680Z,21.9
2017-02-09T10:35:35.665Z,21.83
2017-02-09T10:36:35.467Z,21.9
2017-02-09T10:37:35.744Z,21.91
2017-02-09T10:38:36.302Z,21.86
2017-02-09T10:39:35.944Z,21.79
2017-02-09T10:40:35.531Z,21.84
2017-02-09T10:41:35.860Z,21.8
2017-02-09T10:42:36.063Z,21.82
2017-02-09T10:43:36.136Z,21.79
2017-02-09T10:44:35.476Z,21.8
2017-02-09T10:45:35.820Z,21.8
2017-02-09T10:46:36.337Z,21.86
2017-02-09T10:47:36.423Z,21.84
2017-02-09T10:48:36.752Z,21.75
2017-02-09T10:49:36.407Z,21.77
2017-02-09T10:50:36.428Z,21.72
2017-02-09T10:51:36.129Z,21.79
2017-02-09T10:52:36.457Z,21.75
2017-02-09T10:53:36.429Z,21.72
2017-02-09T10:54:36.229Z,21.72
2017-02-09T10:55:36.670Z,21.79
2017-02-09T10:56:35.791Z,21.82
2017-02-09T10:57:36.331Z,21.77
2017-02-09T10:58:36.764Z,21.69
2017-02-09T10:59:36.363Z,21.67
2017-02-09T11:00:35.863Z,21.68
2017-02-09T11:01:36.045Z,21.62
2017-02-09T11:02:36.037Z,21.67
2017-02-09T11:03:36.322Z,21.71
2017-02-09T11:04:36.362Z,21.75
2017-02-09T11:05:36.534Z,21.69
2017-02-09T11:06:36.479Z,21.69
2017-02-09T11:07:36.517Z,21.75
2017-02-09T11:08:37.150Z,21.65
2017-02-09T11:09:36.909Z,21.74
2017-02-09T11:10:36.189Z,21.75
2017-02-09T11:11:37.051Z,21.77
2017-02-09T11:12:36.479Z,21.77
2017-02-09T11:13:36.755Z,21.72
2017-02-09T11:14:37.179Z,21.79
2017-02-09T11:15:36.812Z,21.75
2017-02-09T11:16:36.607Z,21.77
2017-02-09T11:17:36.493Z,21.72
2017-02-09T11:18:36.679Z,21.77
2017-02-09T11:19:36.854Z,21.74
2017-02-09T11:20:36.477Z,21.79
2017-02-09T11:21:37.287Z,21.77
2017-02-09T11:22:36.974Z,21.75
2017-02-09T11:23:36.326Z,21.83
2017-02-09T11:24:36.568Z,21.84
2017-02-09T11:25:37.008Z,21.84
2017-02-09T11:26:37.435Z,21.83
2017-02-09T11:27:36.972Z,21.79
2017-02-09T11:28:37.127Z,21.86
2017-02-09T11:29:37.437Z,21.88
2017-02-09T11:30:37.572Z,21.83
2017-02-09T11:31:37.386Z,21.86
2017-02-09T11:32:37.542Z,21.74
2017-02-09T11:33:37.613Z,21.8
2017-02-09T11:34:37.573Z,21.75
2017-02-09T11:35:37.645Z,21.91
2017-02-09T11:36:37.304Z,21.79
2017-02-09T11:37:36.652Z,21.83
2017-02-09T11:38:37.390Z,21.79
2017-02-09T11:39:36.979Z,21.9
2017-02-09T11:40:37.299Z,21.88
2017-02-09T11:41:37.017Z,22
2017-02-09T11:42:37.816Z,22
2017-02-09T11:43:37.916Z,22.06
2017-02-09T11:44:38.187Z,21.96
2017-02-09T11:45:37.922Z,22
2017-02-09T11:46:37.445Z,21.98
2017-02-09T11:47:37.688Z,22.17
2017-02-09T11:48:38.020Z,22.18
2017-02-09T11:49:38.222Z,22.2
2017-02-09T11:50:37.849Z,22.21
2017-02-09T11:51:38.086Z,22.28
2017-02-09T11:52:38.204Z,22.28
2017-02-09T11:53:37.739Z,22.33
2017-02-09T11:54:37.898Z,22.43
2017-02-09T11:55:37.947Z,22.47
2017-02-09T11:56:37.811Z,22.47
2017-02-09T11:57:38.299Z,22.51
2017-02-09T11:58:37.890Z,22.49
2017-02-09T11:59:38.568Z,22.62
2017-02-09T12:00:37.956Z,22.61
2017-02-09T12:01:37.633Z,22.67
2017-02-09T12:02:38.037Z,22.7
2017-02-09T12:03:37.969Z,22.61
2017-02-09T12:04:38.526Z,22.68
2017-02-09T12:05:37.680Z,22.7
2017-02-09T12:06:38.423Z,22.75
2017-02-09T12:07:38.557Z,22.83
2017-02-09T12:08:38.014Z,22.85
2017-02-09T12:09:39.130Z,22.9
2017-02-09T12:10:38.624Z,22.88
2017-02-09T12:11:37.856Z,22.9
2017-02-09T12:12:38.723Z,23.01
2017-02-09T12:13:38.674Z,23.05
2017-02-09T12:14:38.222Z,23.07
2017-02-09T12:15:38.376Z,23.01
2017-02-09T12:16:38.348Z,23.07
2017-02-09T12:17:38.023Z,23.12
2017-02-09T12:18:38.891Z,23.09
2017-02-09T12:19:38.838Z,23.13
2017-02-09T12:20:38.582Z,23.15
2017-02-09T12:21:38.953Z,23.13
2017-02-09T12:22:38.436Z,23.17
2017-02-09T12:23:38.714Z,23.13
2017-02-09T12:24:37.781Z,23.19
2017-02-09T12:25:39.193Z,23.15
2017-02-09T12:26:38.182Z,23.13
2017-02-09T12:27:39.149Z,23.12
2017-02-09T12:28:39.085Z,23.09
2017-02-09T12:29:39.123Z,23.1
2017-02-09T12:30:38.619Z,23.12
2017-02-09T12:31:38.422Z,23.05
2017-02-09T12:32:38.813Z,23.12
2017-02-09T12:33:38.868Z,23.05
2017-02-09T12:34:38.963Z,23.05
2017-02-09T12:35:39.491Z,22.98
2017-02-09T12:36:38.916Z,23.07
2017-02-09T12:37:39.065Z,23.04
2017-02-09T12:38:38.657Z,23.04
2017-02-09T12:39:39.412Z,23
2017-02-09T12:40:39.759Z,22.94
2017-02-09T12:41:39.170Z,22.97
2017-02-09T12:42:38.984Z,22.88
2017-02-09T12:43:39.574Z,22.85
2017-02-09T12:44:39.609Z,22.94
2017-02-09T12:45:39.555Z,22.9
2017-02-09T12:46:38.852Z,22.9
2017-02-09T12:47:39.382Z,22.8
2017-02-09T12:48:39.253Z,22.88
2017-02-09T12:49:39.739Z,22.86
2017-02-09T12:50:38.889Z,22.8
2017-02-09T12:51:39.857Z,22.79
2017-02-09T12:52:39.477Z,22.76
2017-02-09T12:53:39.823Z,22.68
2017-02-09T12:54:39.399Z,22.77
2017-02-09T12:55:39.831Z,22.67